sensor_id;sensor_type;location;lat;lon;timestamp;P1;durP1;ratioP1;P2;durP2;ratioP2
6017;SDS011;3037;51.068;13.780;2024-03-22T00:01:57;10.40;;;8.10;;
6017;SDS011;3037;51.068;13.780;2024-03-22T00:04:23;12.50;;;8.77;;
6017;SDS011;3037;51.068;13.780;2024-03-22T00:06:49;14.53;;;9.50;;
6017;SDS011;3037;51.068;13.780;2024-03-22T00:09:15;16.97;;;10.10;;
6017;SDS011;3037;51.068;13.780;2024-03-22T00:11:41;9.70;;;8.43;;
6017;SDS011;3037;51.068;13.780;2024-03-22T00:14:08;12.27;;;8.57;;
6017;SDS011;3037;51.068;13.780;2024-03-22T00:16:34;12.43;;;8.80;;
6017;SDS011;3037;51.068;13.780;2024-03-22T00:19:00;12.37;;;8.97;;
6017;SDS011;3037;51.068;13.780;2024-03-22T00:21:26;11.73;;;8.50;;
6017;SDS011;3037;51.068;13.780;2024-03-22T00:23:53;18.13;;;10.50;;
6017;SDS011;3037;51.068;13.780;2024-03-22T00:26:19;14.07;;;9.57;;
6017;SDS011;3037;51.068;13.780;2024-03-22T00:28:44;12.40;;;8.97;;
6017;SDS011;3037;51.068;13.780;2024-03-22T00:31:09;15.40;;;9.70;;
6017;SDS011;3037;51.068;13.780;2024-03-22T00:33:35;16.77;;;9.53;;
6017;SDS011;3037;51.068;13.780;2024-03-22T00:36:01;12.20;;;8.50;;
6017;SDS011;3037;51.068;13.780;2024-03-22T00:38:26;10.83;;;8.03;;
6017;SDS011;3037;51.068;13.780;2024-03-22T00:40:52;16.70;;;9.50;;
6017;SDS011;3037;51.068;13.780;2024-03-22T00:43:17;12.90;;;8.80;;
6017;SDS011;3037;51.068;13.780;2024-03-22T00:45:43;14.73;;;9.03;;
6017;SDS011;3037;51.068;13.780;2024-03-22T00:48:08;17.03;;;8.67;;
6017;SDS011;3037;51.068;13.780;2024-03-22T00:50:34;15.20;;;10.50;;
6017;SDS011;3037;51.068;13.780;2024-03-22T00:52:59;21.43;;;10.60;;
6017;SDS011;3037;51.068;13.780;2024-03-22T00:55:27;15.70;;;10.00;;
6017;SDS011;3037;51.068;13.780;2024-03-22T00:57:53;22.30;;;9.87;;
6017;SDS011;3037;51.068;13.780;2024-03-22T01:00:18;14.63;;;10.13;;
6017;SDS011;3037;51.068;13.780;2024-03-22T01:02:44;13.00;;;10.30;;
6017;SDS011;3037;51.068;13.780;2024-03-22T01:05:09;14.53;;;10.30;;
6017;SDS011;3037;51.068;13.780;2024-03-22T01:07:35;15.50;;;10.33;;
6017;SDS011;3037;51.068;13.780;2024-03-22T01:10:01;20.93;;;9.83;;
6017;SDS011;3037;51.068;13.780;2024-03-22T01:12:27;16.53;;;9.13;;
6017;SDS011;3037;51.068;13.780;2024-03-22T01:14:53;13.97;;;10.23;;
6017;SDS011;3037;51.068;13.780;2024-03-22T01:17:19;15.33;;;10.37;;
6017;SDS011;3037;51.068;13.780;2024-03-22T01:19:44;15.43;;;9.80;;
6017;SDS011;3037;51.068;13.780;2024-03-22T01:22:10;12.90;;;9.60;;
6017;SDS011;3037;51.068;13.780;2024-03-22T01:24:35;16.10;;;11.27;;
6017;SDS011;3037;51.068;13.780;2024-03-22T01:27:01;18.37;;;11.60;;
6017;SDS011;3037;51.068;13.780;2024-03-22T01:29:26;23.90;;;10.10;;
6017;SDS011;3037;51.068;13.780;2024-03-22T01:31:55;16.67;;;11.30;;
6017;SDS011;3037;51.068;13.780;2024-03-22T01:34:20;18.53;;;10.37;;
6017;SDS011;3037;51.068;13.780;2024-03-22T01:36:46;16.40;;;11.50;;
6017;SDS011;3037;51.068;13.780;2024-03-22T01:39:11;18.77;;;11.17;;
6017;SDS011;3037;51.068;13.780;2024-03-22T01:41:39;18.77;;;10.77;;
6017;SDS011;3037;51.068;13.780;2024-03-22T01:44:04;16.67;;;11.30;;
6017;SDS011;3037;51.068;13.780;2024-03-22T01:46:30;21.40;;;11.97;;
6017;SDS011;3037;51.068;13.780;2024-03-22T01:48:55;20.47;;;11.40;;
6017;SDS011;3037;51.068;13.780;2024-03-22T01:51:21;17.93;;;11.07;;
6017;SDS011;3037;51.068;13.780;2024-03-22T01:53:46;17.80;;;11.77;;
6017;SDS011;3037;51.068;13.780;2024-03-22T01:56:12;15.70;;;11.57;;
6017;SDS011;3037;51.068;13.780;2024-03-22T01:58:39;17.23;;;11.70;;
6017;SDS011;3037;51.068;13.780;2024-03-22T02:01:05;19.27;;;11.30;;
6017;SDS011;3037;51.068;13.780;2024-03-22T02:03:31;17.77;;;11.30;;
6017;SDS011;3037;51.068;13.780;2024-03-22T02:05:56;21.10;;;10.80;;
6017;SDS011;3037;51.068;13.780;2024-03-22T02:08:22;17.40;;;11.67;;
6017;SDS011;3037;51.068;13.780;2024-03-22T02:10:47;18.10;;;11.43;;
6017;SDS011;3037;51.068;13.780;2024-03-22T02:13:13;20.00;;;11.43;;
6017;SDS011;3037;51.068;13.780;2024-03-22T02:15:38;17.37;;;10.27;;
6017;SDS011;3037;51.068;13.780;2024-03-22T02:18:04;21.73;;;11.57;;
6017;SDS011;3037;51.068;13.780;2024-03-22T02:20:29;21.80;;;11.00;;
6017;SDS011;3037;51.068;13.780;2024-03-22T02:22:55;22.33;;;11.03;;
6017;SDS011;3037;51.068;13.780;2024-03-22T02:25:20;17.23;;;10.30;;
6017;SDS011;3037;51.068;13.780;2024-03-22T02:27:46;13.30;;;9.70;;
6017;SDS011;3037;51.068;13.780;2024-03-22T02:30:15;17.00;;;10.37;;
6017;SDS011;3037;51.068;13.780;2024-03-22T02:32:43;15.13;;;10.50;;
6017;SDS011;3037;51.068;13.780;2024-03-22T02:35:09;16.17;;;10.40;;
6017;SDS011;3037;51.068;13.780;2024-03-22T02:37:34;22.83;;;10.97;;
6017;SDS011;3037;51.068;13.780;2024-03-22T02:40:00;19.27;;;11.50;;
6017;SDS011;3037;51.068;13.780;2024-03-22T02:42:26;19.73;;;11.93;;
6017;SDS011;3037;51.068;13.780;2024-03-22T02:44:52;16.43;;;11.20;;
6017;SDS011;3037;51.068;13.780;2024-03-22T02:47:17;18.67;;;11.70;;
6017;SDS011;3037;51.068;13.780;2024-03-22T02:49:43;17.00;;;11.63;;
6017;SDS011;3037;51.068;13.780;2024-03-22T02:52:08;18.67;;;11.40;;
6017;SDS011;3037;51.068;13.780;2024-03-22T02:54:34;16.33;;;10.63;;
6017;SDS011;3037;51.068;13.780;2024-03-22T02:56:59;18.87;;;11.47;;
6017;SDS011;3037;51.068;13.780;2024-03-22T02:59:26;18.37;;;10.50;;
6017;SDS011;3037;51.068;13.780;2024-03-22T03:01:52;16.93;;;10.63;;
6017;SDS011;3037;51.068;13.780;2024-03-22T03:04:18;17.80;;;10.27;;
6017;SDS011;3037;51.068;13.780;2024-03-22T03:06:43;14.80;;;10.30;;
6017;SDS011;3037;51.068;13.780;2024-03-22T03:09:10;17.03;;;10.00;;
6017;SDS011;3037;51.068;13.780;2024-03-22T03:11:37;19.27;;;10.80;;
6017;SDS011;3037;51.068;13.780;2024-03-22T03:14:04;15.20;;;10.37;;
6017;SDS011;3037;51.068;13.780;2024-03-22T03:16:29;14.90;;;10.77;;
6017;SDS011;3037;51.068;13.780;2024-03-22T03:18:56;23.13;;;11.80;;
6017;SDS011;3037;51.068;13.780;2024-03-22T03:21:21;14.90;;;9.90;;
6017;SDS011;3037;51.068;13.780;2024-03-22T03:23:47;18.50;;;11.43;;
6017;SDS011;3037;51.068;13.780;2024-03-22T03:26:12;19.17;;;11.63;;
6017;SDS011;3037;51.068;13.780;2024-03-22T03:28:38;22.97;;;11.67;;
6017;SDS011;3037;51.068;13.780;2024-03-22T03:31:03;19.73;;;9.83;;
6017;SDS011;3037;51.068;13.780;2024-03-22T03:33:29;24.13;;;12.03;;
6017;SDS011;3037;51.068;13.780;2024-03-22T03:35:55;14.67;;;10.37;;
6017;SDS011;3037;51.068;13.780;2024-03-22T03:38:20;20.30;;;11.97;;
6017;SDS011;3037;51.068;13.780;2024-03-22T03:40:46;18.00;;;11.77;;
6017;SDS011;3037;51.068;13.780;2024-03-22T03:43:12;17.70;;;10.80;;
6017;SDS011;3037;51.068;13.780;2024-03-22T03:45:37;17.83;;;10.63;;
6017;SDS011;3037;51.068;13.780;2024-03-22T03:48:03;17.67;;;11.30;;
6017;SDS011;3037;51.068;13.780;2024-03-22T03:50:29;16.83;;;11.57;;
6017;SDS011;3037;51.068;13.780;2024-03-22T03:52:54;19.00;;;11.53;;
6017;SDS011;3037;51.068;13.780;2024-03-22T03:55:20;20.83;;;12.07;;
6017;SDS011;3037;51.068;13.780;2024-03-22T03:57:46;16.90;;;10.27;;
6017;SDS011;3037;51.068;13.780;2024-03-22T04:00:12;20.03;;;11.83;;
6017;SDS011;3037;51.068;13.780;2024-03-22T04:02:37;19.60;;;10.07;;
6017;SDS011;3037;51.068;13.780;2024-03-22T04:05:03;21.33;;;12.10;;
6017;SDS011;3037;51.068;13.780;2024-03-22T04:07:29;22.47;;;12.10;;
6017;SDS011;3037;51.068;13.780;2024-03-22T04:09:54;18.17;;;11.80;;
6017;SDS011;3037;51.068;13.780;2024-03-22T04:12:20;19.13;;;11.00;;
6017;SDS011;3037;51.068;13.780;2024-03-22T04:14:45;21.43;;;12.80;;
6017;SDS011;3037;51.068;13.780;2024-03-22T04:17:11;22.57;;;13.37;;
6017;SDS011;3037;51.068;13.780;2024-03-22T04:19:36;20.43;;;12.87;;
6017;SDS011;3037;51.068;13.780;2024-03-22T04:22:02;21.33;;;11.50;;
6017;SDS011;3037;51.068;13.780;2024-03-22T04:24:28;23.30;;;14.00;;
6017;SDS011;3037;51.068;13.780;2024-03-22T04:26:54;19.83;;;12.30;;
6017;SDS011;3037;51.068;13.780;2024-03-22T04:29:19;21.70;;;12.17;;
6017;SDS011;3037;51.068;13.780;2024-03-22T04:31:45;19.47;;;11.47;;
6017;SDS011;3037;51.068;13.780;2024-03-22T04:34:10;20.43;;;11.80;;
6017;SDS011;3037;51.068;13.780;2024-03-22T04:36:36;20.13;;;13.67;;
6017;SDS011;3037;51.068;13.780;2024-03-22T04:39:01;20.33;;;12.07;;
6017;SDS011;3037;51.068;13.780;2024-03-22T04:41:28;20.07;;;11.00;;
6017;SDS011;3037;51.068;13.780;2024-03-22T04:43:53;19.67;;;11.70;;
6017;SDS011;3037;51.068;13.780;2024-03-22T04:46:19;20.77;;;10.87;;
6017;SDS011;3037;51.068;13.780;2024-03-22T04:48:44;26.53;;;12.20;;
6017;SDS011;3037;51.068;13.780;2024-03-22T04:51:09;25.80;;;13.30;;
6017;SDS011;3037;51.068;13.780;2024-03-22T04:53:35;21.30;;;11.87;;
6017;SDS011;3037;51.068;13.780;2024-03-22T04:56:00;26.27;;;13.43;;
6017;SDS011;3037;51.068;13.780;2024-03-22T04:58:27;23.53;;;15.00;;
6017;SDS011;3037;51.068;13.780;2024-03-22T05:00:56;23.00;;;13.93;;
6017;SDS011;3037;51.068;13.780;2024-03-22T05:03:22;26.73;;;14.87;;
6017;SDS011;3037;51.068;13.780;2024-03-22T05:05:49;26.47;;;14.23;;
6017;SDS011;3037;51.068;13.780;2024-03-22T05:08:15;27.97;;;14.77;;
6017;SDS011;3037;51.068;13.780;2024-03-22T05:10:40;23.10;;;13.00;;
6017;SDS011;3037;51.068;13.780;2024-03-22T05:13:07;22.23;;;13.60;;
6017;SDS011;3037;51.068;13.780;2024-03-22T05:15:32;25.47;;;15.40;;
6017;SDS011;3037;51.068;13.780;2024-03-22T05:17:59;30.27;;;14.30;;
6017;SDS011;3037;51.068;13.780;2024-03-22T05:20:25;22.53;;;14.13;;
6017;SDS011;3037;51.068;13.780;2024-03-22T05:22:50;26.07;;;14.47;;
6017;SDS011;3037;51.068;13.780;2024-03-22T05:25:16;32.00;;;16.30;;
6017;SDS011;3037;51.068;13.780;2024-03-22T05:27:42;26.03;;;13.17;;
6017;SDS011;3037;51.068;13.780;2024-03-22T05:30:09;26.43;;;14.00;;
6017;SDS011;3037;51.068;13.780;2024-03-22T05:32:35;25.13;;;13.80;;
6017;SDS011;3037;51.068;13.780;2024-03-22T05:35:00;27.53;;;14.60;;
6017;SDS011;3037;51.068;13.780;2024-03-22T05:37:26;25.80;;;14.50;;
6017;SDS011;3037;51.068;13.780;2024-03-22T05:39:51;24.43;;;13.37;;
6017;SDS011;3037;51.068;13.780;2024-03-22T05:42:17;26.23;;;14.30;;
6017;SDS011;3037;51.068;13.780;2024-03-22T05:44:43;23.37;;;14.20;;
6017;SDS011;3037;51.068;13.780;2024-03-22T05:47:09;27.10;;;14.23;;
6017;SDS011;3037;51.068;13.780;2024-03-22T05:49:35;23.70;;;14.20;;
6017;SDS011;3037;51.068;13.780;2024-03-22T05:52:00;22.40;;;13.60;;
6017;SDS011;3037;51.068;13.780;2024-03-22T05:54:25;26.03;;;14.47;;
6017;SDS011;3037;51.068;13.780;2024-03-22T05:56:51;22.40;;;14.60;;
6017;SDS011;3037;51.068;13.780;2024-03-22T05:59:17;20.57;;;13.40;;
6017;SDS011;3037;51.068;13.780;2024-03-22T06:01:42;23.07;;;14.13;;
6017;SDS011;3037;51.068;13.780;2024-03-22T06:04:08;19.33;;;12.80;;
6017;SDS011;3037;51.068;13.780;2024-03-22T06:06:34;21.80;;;12.83;;
6017;SDS011;3037;51.068;13.780;2024-03-22T06:09:00;22.40;;;14.03;;
6017;SDS011;3037;51.068;13.780;2024-03-22T06:11:29;22.60;;;14.33;;
6017;SDS011;3037;51.068;13.780;2024-03-22T06:13:55;21.10;;;12.50;;
6017;SDS011;3037;51.068;13.780;2024-03-22T06:16:21;32.53;;;16.03;;
6017;SDS011;3037;51.068;13.780;2024-03-22T06:18:46;22.30;;;12.57;;
6017;SDS011;3037;51.068;13.780;2024-03-22T06:21:12;19.13;;;12.37;;
6017;SDS011;3037;51.068;13.780;2024-03-22T06:23:39;22.00;;;12.40;;
6017;SDS011;3037;51.068;13.780;2024-03-22T06:26:06;20.80;;;11.93;;
6017;SDS011;3037;51.068;13.780;2024-03-22T06:28:31;20.70;;;11.47;;
6017;SDS011;3037;51.068;13.780;2024-03-22T06:30:57;18.10;;;11.50;;
6017;SDS011;3037;51.068;13.780;2024-03-22T06:33:22;16.20;;;11.40;;
6017;SDS011;3037;51.068;13.780;2024-03-22T06:35:48;18.10;;;10.00;;
6017;SDS011;3037;51.068;13.780;2024-03-22T06:38:13;21.03;;;11.00;;
6017;SDS011;3037;51.068;13.780;2024-03-22T06:40:39;14.03;;;10.13;;
6017;SDS011;3037;51.068;13.780;2024-03-22T06:43:04;19.40;;;11.50;;
6017;SDS011;3037;51.068;13.780;2024-03-22T06:45:30;22.20;;;11.43;;
6017;SDS011;3037;51.068;13.780;2024-03-22T06:47:55;18.40;;;10.47;;
6017;SDS011;3037;51.068;13.780;2024-03-22T06:50:21;17.17;;;9.67;;
6017;SDS011;3037;51.068;13.780;2024-03-22T06:52:50;12.97;;;8.60;;
6017;SDS011;3037;51.068;13.780;2024-03-22T06:55:16;19.30;;;11.60;;
6017;SDS011;3037;51.068;13.780;2024-03-22T06:57:42;12.90;;;9.47;;
6017;SDS011;3037;51.068;13.780;2024-03-22T07:00:10;13.20;;;10.00;;
6017;SDS011;3037;51.068;13.780;2024-03-22T07:02:36;12.40;;;10.30;;
6017;SDS011;3037;51.068;13.780;2024-03-22T07:05:01;19.10;;;10.00;;
6017;SDS011;3037;51.068;13.780;2024-03-22T07:07:27;14.10;;;9.97;;
6017;SDS011;3037;51.068;13.780;2024-03-22T07:09:52;17.93;;;10.57;;
6017;SDS011;3037;51.068;13.780;2024-03-22T07:12:18;14.67;;;9.80;;
6017;SDS011;3037;51.068;13.780;2024-03-22T07:14:43;13.03;;;8.87;;
6017;SDS011;3037;51.068;13.780;2024-03-22T07:17:09;16.07;;;8.53;;
6017;SDS011;3037;51.068;13.780;2024-03-22T07:19:34;12.97;;;8.47;;
6017;SDS011;3037;51.068;13.780;2024-03-22T07:22:00;19.33;;;8.67;;
6017;SDS011;3037;51.068;13.780;2024-03-22T07:24:25;15.20;;;8.87;;
6017;SDS011;3037;51.068;13.780;2024-03-22T07:26:51;10.57;;;7.93;;
6017;SDS011;3037;51.068;13.780;2024-03-22T07:29:17;16.90;;;9.00;;
6017;SDS011;3037;51.068;13.780;2024-03-22T07:31:42;12.13;;;8.10;;
6017;SDS011;3037;51.068;13.780;2024-03-22T07:34:08;12.37;;;8.83;;
6017;SDS011;3037;51.068;13.780;2024-03-22T07:36:37;12.43;;;8.20;;
6017;SDS011;3037;51.068;13.780;2024-03-22T07:39:03;13.33;;;8.70;;
6017;SDS011;3037;51.068;13.780;2024-03-22T07:41:31;10.80;;;7.73;;
6017;SDS011;3037;51.068;13.780;2024-03-22T07:43:57;9.30;;;7.03;;
6017;SDS011;3037;51.068;13.780;2024-03-22T07:46:24;11.50;;;5.67;;
6017;SDS011;3037;51.068;13.780;2024-03-22T07:48:49;11.80;;;6.87;;
6017;SDS011;3037;51.068;13.780;2024-03-22T07:51:15;8.03;;;7.20;;
6017;SDS011;3037;51.068;13.780;2024-03-22T07:53:40;9.70;;;7.70;;
6017;SDS011;3037;51.068;13.780;2024-03-22T07:56:06;11.37;;;7.20;;
6017;SDS011;3037;51.068;13.780;2024-03-22T07:58:31;8.73;;;6.63;;
6017;SDS011;3037;51.068;13.780;2024-03-22T08:00:57;13.77;;;7.60;;
6017;SDS011;3037;51.068;13.780;2024-03-22T08:03:22;15.07;;;6.47;;
6017;SDS011;3037;51.068;13.780;2024-03-22T08:05:48;7.83;;;6.07;;
6017;SDS011;3037;51.068;13.780;2024-03-22T08:08:14;23.57;;;7.90;;
6017;SDS011;3037;51.068;13.780;2024-03-22T08:10:39;10.73;;;7.07;;
6017;SDS011;3037;51.068;13.780;2024-03-22T08:13:05;13.63;;;7.50;;
6017;SDS011;3037;51.068;13.780;2024-03-22T08:15:30;9.17;;;6.37;;
6017;SDS011;3037;51.068;13.780;2024-03-22T08:17:56;12.90;;;7.20;;
6017;SDS011;3037;51.068;13.780;2024-03-22T08:20:23;10.93;;;7.53;;
6017;SDS011;3037;51.068;13.780;2024-03-22T08:22:49;10.77;;;6.53;;
6017;SDS011;3037;51.068;13.780;2024-03-22T08:25:14;12.87;;;7.77;;
6017;SDS011;3037;51.068;13.780;2024-03-22T08:27:42;15.30;;;8.70;;
6017;SDS011;3037;51.068;13.780;2024-03-22T08:30:08;14.37;;;9.03;;
6017;SDS011;3037;51.068;13.780;2024-03-22T08:32:35;12.60;;;8.43;;
6017;SDS011;3037;51.068;13.780;2024-03-22T08:35:00;16.17;;;9.23;;
6017;SDS011;3037;51.068;13.780;2024-03-22T08:37:26;17.00;;;9.80;;
6017;SDS011;3037;51.068;13.780;2024-03-22T08:39:57;13.43;;;9.60;;
6017;SDS011;3037;51.068;13.780;2024-03-22T08:42:26;11.87;;;8.97;;
6017;SDS011;3037;51.068;13.780;2024-03-22T08:44:51;15.53;;;9.43;;
6017;SDS011;3037;51.068;13.780;2024-03-22T08:47:17;14.17;;;9.80;;
6017;SDS011;3037;51.068;13.780;2024-03-22T08:49:42;16.30;;;9.53;;
6017;SDS011;3037;51.068;13.780;2024-03-22T08:52:14;26.03;;;8.60;;
6017;SDS011;3037;51.068;13.780;2024-03-22T08:54:40;11.50;;;8.73;;
6017;SDS011;3037;51.068;13.780;2024-03-22T08:57:05;14.37;;;8.20;;
6017;SDS011;3037;51.068;13.780;2024-03-22T08:59:31;16.63;;;9.40;;
6017;SDS011;3037;51.068;13.780;2024-03-22T09:01:57;16.13;;;9.77;;
6017;SDS011;3037;51.068;13.780;2024-03-22T09:04:24;13.60;;;8.50;;
6017;SDS011;3037;51.068;13.780;2024-03-22T09:06:50;10.60;;;7.87;;
6017;SDS011;3037;51.068;13.780;2024-03-22T09:09:15;13.47;;;8.80;;
6017;SDS011;3037;51.068;13.780;2024-03-22T09:11:41;15.77;;;8.03;;
6017;SDS011;3037;51.068;13.780;2024-03-22T09:14:07;15.13;;;7.63;;
6017;SDS011;3037;51.068;13.780;2024-03-22T09:16:32;11.60;;;7.80;;
6017;SDS011;3037;51.068;13.780;2024-03-22T09:18:58;7.87;;;6.17;;
6017;SDS011;3037;51.068;13.780;2024-03-22T09:21:30;10.80;;;7.50;;
6017;SDS011;3037;51.068;13.780;2024-03-22T09:23:58;15.27;;;7.27;;
6017;SDS011;3037;51.068;13.780;2024-03-22T09:26:23;10.87;;;7.50;;
6017;SDS011;3037;51.068;13.780;2024-03-22T09:28:49;9.67;;;7.33;;
6017;SDS011;3037;51.068;13.780;2024-03-22T09:31:17;9.30;;;7.10;;
6017;SDS011;3037;51.068;13.780;2024-03-22T09:33:43;10.43;;;6.37;;
6017;SDS011;3037;51.068;13.780;2024-03-22T09:36:08;11.87;;;7.40;;
6017;SDS011;3037;51.068;13.780;2024-03-22T09:38:34;10.07;;;6.60;;
6017;SDS011;3037;51.068;13.780;2024-03-22T09:40:59;9.50;;;6.10;;
6017;SDS011;3037;51.068;13.780;2024-03-22T09:43:26;12.43;;;5.93;;
6017;SDS011;3037;51.068;13.780;2024-03-22T09:45:53;10.90;;;7.07;;
6017;SDS011;3037;51.068;13.780;2024-03-22T09:48:20;10.60;;;5.93;;
6017;SDS011;3037;51.068;13.780;2024-03-22T09:50:46;7.20;;;5.53;;
6017;SDS011;3037;51.068;13.780;2024-03-22T09:53:13;11.10;;;6.83;;
6017;SDS011;3037;51.068;13.780;2024-03-22T09:55:42;8.40;;;5.40;;
6017;SDS011;3037;51.068;13.780;2024-03-22T09:58:09;8.93;;;6.13;;
6017;SDS011;3037;51.068;13.780;2024-03-22T10:00:35;12.17;;;6.17;;
6017;SDS011;3037;51.068;13.780;2024-03-22T10:03:01;5.67;;;5.07;;
6017;SDS011;3037;51.068;13.780;2024-03-22T10:05:28;7.03;;;5.60;;
6017;SDS011;3037;51.068;13.780;2024-03-22T10:07:54;8.63;;;5.70;;
6017;SDS011;3037;51.068;13.780;2024-03-22T10:10:20;6.63;;;5.90;;
6017;SDS011;3037;51.068;13.780;2024-03-22T10:12:46;10.47;;;6.20;;
6017;SDS011;3037;51.068;13.780;2024-03-22T10:15:12;7.73;;;6.07;;
6017;SDS011;3037;51.068;13.780;2024-03-22T10:17:37;8.90;;;4.90;;
6017;SDS011;3037;51.068;13.780;2024-03-22T10:20:04;13.77;;;5.63;;
6017;SDS011;3037;51.068;13.780;2024-03-22T10:22:37;5.03;;;4.53;;
6017;SDS011;3037;51.068;13.780;2024-03-22T10:25:04;7.90;;;5.60;;
6017;SDS011;3037;51.068;13.780;2024-03-22T10:27:31;9.17;;;5.43;;
6017;SDS011;3037;51.068;13.780;2024-03-22T10:29:57;6.00;;;5.40;;
6017;SDS011;3037;51.068;13.780;2024-03-22T10:32:23;6.13;;;5.47;;
6017;SDS011;3037;51.068;13.780;2024-03-22T10:34:49;8.37;;;5.47;;
6017;SDS011;3037;51.068;13.780;2024-03-22T10:37:16;9.57;;;5.90;;
6017;SDS011;3037;51.068;13.780;2024-03-22T10:39:42;5.23;;;4.40;;
6017;SDS011;3037;51.068;13.780;2024-03-22T10:42:09;4.87;;;4.37;;
6017;SDS011;3037;51.068;13.780;2024-03-22T10:44:35;7.07;;;4.87;;
6017;SDS011;3037;51.068;13.780;2024-03-22T10:47:01;4.80;;;4.40;;
6017;SDS011;3037;51.068;13.780;2024-03-22T10:49:29;17.63;;;5.10;;
6017;SDS011;3037;51.068;13.780;2024-03-22T10:51:59;11.10;;;5.47;;
6017;SDS011;3037;51.068;13.780;2024-03-22T10:54:40;5.23;;;4.30;;
6017;SDS011;3037;51.068;13.780;2024-03-22T10:57:11;5.70;;;4.17;;
6017;SDS011;3037;51.068;13.780;2024-03-22T10:59:43;7.60;;;4.10;;
6017;SDS011;3037;51.068;13.780;2024-03-22T11:02:11;6.23;;;4.30;;
6017;SDS011;3037;51.068;13.780;2024-03-22T11:04:37;7.33;;;4.10;;
6017;SDS011;3037;51.068;13.780;2024-03-22T11:07:02;8.40;;;5.30;;
6017;SDS011;3037;51.068;13.780;2024-03-22T11:09:28;7.13;;;5.73;;
6017;SDS011;3037;51.068;13.780;2024-03-22T11:11:55;6.70;;;4.10;;
6017;SDS011;3037;51.068;13.780;2024-03-22T11:14:25;7.47;;;4.97;;
6017;SDS011;3037;51.068;13.780;2024-03-22T11:16:51;5.20;;;4.70;;
6017;SDS011;3037;51.068;13.780;2024-03-22T11:19:17;7.80;;;6.33;;
6017;SDS011;3037;51.068;13.780;2024-03-22T11:21:43;4.43;;;4.03;;
6017;SDS011;3037;51.068;13.780;2024-03-22T11:24:08;17.83;;;4.70;;
6017;SDS011;3037;51.068;13.780;2024-03-22T11:26:35;6.60;;;4.23;;
6017;SDS011;3037;51.068;13.780;2024-03-22T11:29:01;7.47;;;4.60;;
6017;SDS011;3037;51.068;13.780;2024-03-22T11:31:27;7.20;;;5.10;;
6017;SDS011;3037;51.068;13.780;2024-03-22T11:33:55;3.83;;;3.50;;
6017;SDS011;3037;51.068;13.780;2024-03-22T11:36:22;4.30;;;3.80;;
6017;SDS011;3037;51.068;13.780;2024-03-22T11:38:48;8.60;;;6.37;;
6017;SDS011;3037;51.068;13.780;2024-03-22T11:41:23;6.73;;;5.37;;
6017;SDS011;3037;51.068;13.780;2024-03-22T11:43:55;7.23;;;4.70;;
6017;SDS011;3037;51.068;13.780;2024-03-22T11:46:22;7.20;;;4.77;;
6017;SDS011;3037;51.068;13.780;2024-03-22T11:48:52;9.10;;;5.90;;
6017;SDS011;3037;51.068;13.780;2024-03-22T11:51:18;12.03;;;5.70;;
6017;SDS011;3037;51.068;13.780;2024-03-22T11:53:51;5.40;;;4.90;;
6017;SDS011;3037;51.068;13.780;2024-03-22T11:56:19;6.90;;;4.70;;
6017;SDS011;3037;51.068;13.780;2024-03-22T11:58:45;6.10;;;4.80;;
6017;SDS011;3037;51.068;13.780;2024-03-22T12:01:12;7.70;;;5.07;;
6017;SDS011;3037;51.068;13.780;2024-03-22T12:03:39;8.90;;;5.90;;
6017;SDS011;3037;51.068;13.780;2024-03-22T12:06:05;9.13;;;4.73;;
6017;SDS011;3037;51.068;13.780;2024-03-22T12:08:31;4.47;;;3.97;;
6017;SDS011;3037;51.068;13.780;2024-03-22T12:10:56;6.50;;;4.23;;
6017;SDS011;3037;51.068;13.780;2024-03-22T12:13:22;9.40;;;4.80;;
6017;SDS011;3037;51.068;13.780;2024-03-22T12:15:47;6.70;;;5.10;;
6017;SDS011;3037;51.068;13.780;2024-03-22T12:18:13;6.03;;;5.20;;
6017;SDS011;3037;51.068;13.780;2024-03-22T12:20:38;5.97;;;4.57;;
6017;SDS011;3037;51.068;13.780;2024-03-22T12:23:04;9.87;;;4.63;;
6017;SDS011;3037;51.068;13.780;2024-03-22T12:25:29;11.67;;;5.00;;
6017;SDS011;3037;51.068;13.780;2024-03-22T12:27:55;13.20;;;6.50;;
6017;SDS011;3037;51.068;13.780;2024-03-22T12:30:20;5.97;;;4.30;;
6017;SDS011;3037;51.068;13.780;2024-03-22T12:32:46;11.20;;;5.33;;
6017;SDS011;3037;51.068;13.780;2024-03-22T12:35:12;8.53;;;5.70;;
6017;SDS011;3037;51.068;13.780;2024-03-22T12:37:37;7.93;;;5.20;;
6017;SDS011;3037;51.068;13.780;2024-03-22T12:40:03;9.23;;;4.93;;
6017;SDS011;3037;51.068;13.780;2024-03-22T12:42:29;7.70;;;5.57;;
6017;SDS011;3037;51.068;13.780;2024-03-22T12:44:54;7.80;;;5.00;;
6017;SDS011;3037;51.068;13.780;2024-03-22T12:47:20;6.90;;;5.00;;
6017;SDS011;3037;51.068;13.780;2024-03-22T12:49:45;7.57;;;5.53;;
6017;SDS011;3037;51.068;13.780;2024-03-22T12:52:11;8.50;;;4.80;;
6017;SDS011;3037;51.068;13.780;2024-03-22T12:54:36;8.37;;;5.90;;
6017;SDS011;3037;51.068;13.780;2024-03-22T12:57:02;5.17;;;4.33;;
6017;SDS011;3037;51.068;13.780;2024-03-22T12:59:27;10.50;;;6.10;;
6017;SDS011;3037;51.068;13.780;2024-03-22T13:01:53;9.97;;;6.43;;
6017;SDS011;3037;51.068;13.780;2024-03-22T13:04:18;9.10;;;5.70;;
6017;SDS011;3037;51.068;13.780;2024-03-22T13:06:44;7.63;;;4.80;;
6017;SDS011;3037;51.068;13.780;2024-03-22T13:09:10;11.97;;;5.23;;
6017;SDS011;3037;51.068;13.780;2024-03-22T13:11:37;11.03;;;6.33;;
6017;SDS011;3037;51.068;13.780;2024-03-22T13:14:03;8.07;;;5.67;;
6017;SDS011;3037;51.068;13.780;2024-03-22T13:16:28;11.20;;;5.87;;
6017;SDS011;3037;51.068;13.780;2024-03-22T13:18:54;6.27;;;5.03;;
6017;SDS011;3037;51.068;13.780;2024-03-22T13:21:19;12.17;;;6.50;;
6017;SDS011;3037;51.068;13.780;2024-03-22T13:23:45;8.83;;;5.70;;
6017;SDS011;3037;51.068;13.780;2024-03-22T13:26:10;8.83;;;6.03;;
6017;SDS011;3037;51.068;13.780;2024-03-22T13:28:36;9.20;;;6.20;;
6017;SDS011;3037;51.068;13.780;2024-03-22T13:31:02;8.80;;;6.07;;
6017;SDS011;3037;51.068;13.780;2024-03-22T13:33:28;10.13;;;5.40;;
6017;SDS011;3037;51.068;13.780;2024-03-22T13:35:54;8.43;;;6.30;;
6017;SDS011;3037;51.068;13.780;2024-03-22T13:38:20;13.00;;;5.67;;
6017;SDS011;3037;51.068;13.780;2024-03-22T13:40:52;6.60;;;5.53;;
6017;SDS011;3037;51.068;13.780;2024-03-22T13:43:21;10.63;;;5.97;;
6017;SDS011;3037;51.068;13.780;2024-03-22T13:45:50;7.77;;;6.00;;
6017;SDS011;3037;51.068;13.780;2024-03-22T13:48:19;9.90;;;6.23;;
6017;SDS011;3037;51.068;13.780;2024-03-22T13:50:48;8.23;;;5.93;;
6017;SDS011;3037;51.068;13.780;2024-03-22T13:53:23;9.00;;;6.10;;
6017;SDS011;3037;51.068;13.780;2024-03-22T13:55:49;9.77;;;6.43;;
6017;SDS011;3037;51.068;13.780;2024-03-22T13:58:16;8.33;;;6.40;;
6017;SDS011;3037;51.068;13.780;2024-03-22T14:00:41;12.23;;;6.23;;
6017;SDS011;3037;51.068;13.780;2024-03-22T14:03:07;12.90;;;7.37;;
6017;SDS011;3037;51.068;13.780;2024-03-22T14:05:33;9.80;;;6.60;;
6017;SDS011;3037;51.068;13.780;2024-03-22T14:07:59;13.83;;;6.80;;
6017;SDS011;3037;51.068;13.780;2024-03-22T14:10:24;11.93;;;6.70;;
6017;SDS011;3037;51.068;13.780;2024-03-22T14:12:52;10.47;;;7.33;;
6017;SDS011;3037;51.068;13.780;2024-03-22T14:15:18;7.30;;;5.80;;
6017;SDS011;3037;51.068;13.780;2024-03-22T14:17:44;7.27;;;5.50;;
6017;SDS011;3037;51.068;13.780;2024-03-22T14:20:10;8.70;;;5.80;;
6017;SDS011;3037;51.068;13.780;2024-03-22T14:22:39;10.33;;;5.73;;
6017;SDS011;3037;51.068;13.780;2024-03-22T14:25:06;8.90;;;6.40;;
6017;SDS011;3037;51.068;13.780;2024-03-22T14:27:33;10.03;;;6.40;;
6017;SDS011;3037;51.068;13.780;2024-03-22T14:30:02;9.37;;;7.37;;
6017;SDS011;3037;51.068;13.780;2024-03-22T14:32:30;8.70;;;5.87;;
6017;SDS011;3037;51.068;13.780;2024-03-22T14:34:57;8.47;;;7.20;;
6017;SDS011;3037;51.068;13.780;2024-03-22T14:37:22;12.93;;;7.87;;
6017;SDS011;3037;51.068;13.780;2024-03-22T14:39:48;8.03;;;5.27;;